Logo AVAMET
Benvolgut visitant, si us plau, ingressa Recuperar contrasenya

Inforatge Gilet

Dades diàries. Acumulats / Últims 30 dies disponibles

Data Temperatura (°C) Humitat rel. (%) Pressió rel. (hPa) Vent (km/h) Precipitació
Mínima Mitjana Màxima Amplitud
tèrmica
Mínima Mitjana Màxima Mínima Mitjana Màxima Predom. Mitjana Ràfega
màxima
Total
(mm)
Índex-n
Mínima Mitjana Màxima Mínima Mitjana Màxima n
0 a 1
P0 max
mm 5'
Dades mensuals acumulades fins l'últim dia disponible
09/2019 14,4 19,2 22,3 22,9 20,9 26,9 31,9 17,5 27 71 95 1.013 1.024 1.034   5,0 48,3 116,8
Dades anuals acumulades fins l'últim dia disponible
2019 1,2 13,3 24,3 18,3 9,1 23,4 41,9 40,7 13 64 96 996 1.023 1.041   5,1 69,3 258,6
Últims 30 dies disponibles
19-09-2019 17,7     22,2     26,3 8,6 59 75 88 1.022 1.023 1.025 SSO 4,4 22,6 0,0
18-09-2019 18,3     23,4     29,7 11,4 41 63 77 1.020 1.021 1.022 SSO 3,1 16,7 0,0
17-09-2019 19,3     23,6     28,9 9,6 49 74 91 1.020 1.022 1.024 SSO 2,5 33,9 0,0
16-09-2019 20,8     23,6     26,9 6,1 60 79 91 1.023 1.025 1.026 S 3,5 24,1 0,0
15-09-2019 21,1     23,3     26,0 4,9 64 76 88 1.025 1.027 1.029 SE 6,8 33,9 0,0
14-09-2019 17,0     21,6     25,7 8,7 53 74 88 1.027 1.029 1.033 S 7,6 42,6 4,8 0,38 0,80
13-09-2019 18,0     21,7     23,8 5,8 49 70 90 1.028 1.031 1.033 ESE 9,6 48,3 11,8 0,81 3,40
12-09-2019 18,5     22,0     24,9 6,4 57 69 89 1.028 1.031 1.034 SE 8,9 42,6 13,0 0,86 7,80
11-09-2019 14,4     17,0     20,9 6,5 53 82 95 1.018 1.024 1.029 SO 6,1 43,5 72,4 0,52 4,20
10-09-2019 18,9     22,7     26,6 7,7 27 45 80 1.013 1.016 1.019 O 8,8 40,7 0,0
09-09-2019 18,4     23,6     28,8 10,4 50 71 87 1.016 1.020 1.024 SO 4,0 24,1 0,0
08-09-2019 18,3     22,5     26,7 8,4 61 76 91 1.022 1.023 1.026 SSO 3,8 22,6 0,6
07-09-2019 19,3     22,1     25,1 5,8 57 75 88 1.024 1.026 1.027 SSO 3,4 25,9 1,2 0,15 0,40
06-09-2019 19,9     22,5     26,0 6,1 43 59 83 1.024 1.025 1.027 S 4,9 24,1 0,0
05-09-2019 20,6     24,2     28,1 7,5 40 66 87 1.022 1.024 1.025 SO 4,0 29,6 0,0
04-09-2019 21,2     24,8     29,1 7,9 64 78 89 1.022 1.024 1.027 SSO 2,9 24,1 0,0
03-09-2019 22,3     24,8     28,1 5,8 58 76 89 1.025 1.026 1.028 S 2,4 24,1 0,0
02-09-2019 19,9     23,6     27,3 7,4 61 78 90 1.021 1.024 1.026 SSO 3,0 32,2 7,6 0,42 0,50
01-09-2019 21,4     26,0     31,9 10,5 43 64 83 1.018 1.020 1.022 SSO 5,8 32,2 5,4 0,28 2,00
31-08-2019 20,3     26,5     32,6 12,3 43 60 75 1.019 1.022 1.024 SSO 3,7 22,6 0,0
30-08-2019 22,6     27,7     31,2 8,6 48 62 74 1.024 1.025 1.026 SSE 4,5 22,6 0,0
29-08-2019 19,3     25,0     30,6 11,3 44 67 81 1.024 1.025 1.026 SSO 3,3 24,1 0,0
28-08-2019 17,0     23,0     28,7 11,7 56 71 86 1.022 1.023 1.025 SSO 4,0 20,9 0,0
27-08-2019 17,6     22,3     28,7 11,1 57 75 91 1.020 1.022 1.023 SO 4,3 61,1 7,0 0,34 2,40
26-08-2019 19,9     24,1     27,8 7,9 66 74 81 1.020 1.022 1.024 S 5,4 33,9 0,0
25-08-2019 19,1     25,0     29,9 10,8 49 68 85 1.022 1.024 1.025 SSO 4,1 24,1 0,0
24-08-2019 18,2     24,4     29,7 11,5 44 64 80 1.023 1.025 1.026 SSO 3,9 22,6 0,0
23-08-2019 17,8     24,5     30,9 13,1 36 61 79 1.024 1.026 1.027 SSO 3,7 25,9 0,0
22-08-2019 17,2     23,4     29,2 12,0 42 67 85 1.025 1.026 1.027 SSO 4,5 22,6 0,0
21-08-2019 19,7     22,9     25,0 5,3 67 79 90 1.025 1.026 1.027 SSO 2,8 22,2 5,0 0,42 0,60
Últims 13 mesos disponibles
08/2019 17,0 20,8 24,3 25,7 25,0 30,4 41,9 24,9 42 69 79 1.016 1.022 1.026 SSO 4,7 61,1 12,6
07/2019 19,4 20,9 23,4 26,1 27,3 31,0 36,6 17,2 47 63 78 1.011 1.020 1.027 S 4,9 45,0 12,2
06/2019 10,5 16,5 20,9 21,9 21,3 26,8 37,7 27,2 39 62 78 1.014 1.021 1.028 S 5,3 61,1 0,0
05/2019 8,3 13,3 17,9 17,9 18,4 22,6 32,7 24,4 45 66 84 1.011 1.021 1.030 S 4,7 51,9 22,0
04/2019 7,2 10,6 14,1 14,9 15,3 19,7 29,8 22,6 42 64 93 1.005 1.018 1.031 SSO 6,8 66,7 61,6
03/2019 4,6 8,0 12,6 13,7 12,1 19,6 28,2 23,6 40 59 86 1.016 1.028 1.035 SSO 4,6 56,3 33,4
02/2019 1,6 5,5 10,8 10,8 10,7 17,1 26,2 24,6 34 64 86 998 1.029 1.039 SO 5,2 68,5 0,0
01/2019 1,2 5,3 11,6 10,4 9,1 16,1 20,9 19,7 37 60 85 1.005 1.024 1.035 SO 5,0 69,3 0,0
12/2018 3,6 7,8 12,3 12,5 14,4 18,2 24,8 21,2 41 70 88 1.013 1.030 1.035 OSO 3,9 66,7 8,0
11/2018 5,2 10,7 15,0 14,0 11,9 17,9 24,0 18,8 46 73 93 1.007 1.020 1.029 OSO 4,7 64,8 103,0
10/2018 8,1 13,9 17,1 17,9 13,8 22,5 28,2 20,1 41 72 91 1.004 1.020 1.031 SO 4,3 46,7 157,4
09/2018 15,5 19,6 22,4 23,3 23,1 27,8 31,9 16,4 57 77 86 1.018 1.025 1.034 3,9 37,0 62,4
08/2018 19,1 22,1 25,2 26,4 27,3 30,8 36,6 17,5 49 68 80 1.018 1.022 1.027 4,4 42,6 16,8
Tots els anys disponibles
Temperatura (°C)
Humitat relativa (%)
Velocitat del vent i ràfega màxima (km/h)
Direcció del vent (°)
Pressió (hPa)
Precipitació (mm)
Nota sobre les dades: s'avisa a l'usuari de la provisionalitat i no oficialitat d'aquestes dades
Logo AVAMET blanc
Web allotjada a Sollutia
Llicència de Creative CommonsLa web d'AVAMET i els seus continguts estan subjectes a una llicència de
Reconeixement - No Comercial - Compartir igual
Properes estacions: Altea - Club Nàutic d'Altea (Soci),    - - - - -      Últimes estacions: Llíria - Bodegas del Campo (Soci), La Pobla Tornesa (Soci), Quartell (Soci), Alzira - Est (Soci/Inforatge), San Miguel de las Salinas (MeteOrihuela), Segorbe (Inforatge), Alcalà de Xivert - Alcossebre (Inforatge), Moixent - la Foia (Soci), Callosa d'en Sarrià - Centre (Soci) - - -